Time;durP1;ratioP1;P1;durP2;ratioP2;P2;SDS_P1;SDS_P2;PMS_P1;PMS_P2;Temp;Humidity;BMP_temperature;BMP_pressure;BME280_temperature;BME280_humidity;BME280_pressure;Samples;Min_cycle;Max_cycle;Signal;HPM_P1;HPM_P2
2023/05/27 00:00:44;;;;;;;15.57;6.82;;;12.30;99.90;;;;;;4933880;29;20591;-71
2023/05/27 00:03:10;;;;;;;18.30;6.55;;;12.20;99.90;;;;;;4939535;29;20055;-72
2023/05/27 00:05:36;;;;;;;17.42;7.25;;;12.10;99.90;;;;;;4923628;29;20046;-71
2023/05/27 00:08:02;;;;;;;16.60;7.25;;;12.10;99.90;;;;;;4923993;29;20114;-71
2023/05/27 00:10:27;;;;;;;19.17;7.20;;;12.00;99.90;;;;;;4936635;29;20130;-71
2023/05/27 00:12:53;;;;;;;21.60;7.47;;;12.00;99.90;;;;;;4921080;29;20269;-71
2023/05/27 00:15:19;;;;;;;20.95;8.02;;;11.90;99.90;;;;;;4924190;29;20058;-71
2023/05/27 00:17:44;;;;;;;17.92;7.30;;;11.90;99.90;;;;;;4899351;29;20048;-71
2023/05/27 00:20:12;;;;;;;22.63;7.53;;;11.80;99.90;;;;;;4932308;29;20051;-72
2023/05/27 00:22:38;;;;;;;14.27;7.38;;;11.80;99.90;;;;;;4919986;29;20052;-72
2023/05/27 00:25:05;;;;;;;20.80;7.40;;;11.80;99.90;;;;;;4942035;29;20102;-71
2023/05/27 00:27:31;;;;;;;17.40;7.28;;;11.70;99.90;;;;;;4935515;29;20408;-71
2023/05/27 00:29:57;;;;;;;18.63;6.95;;;11.70;99.90;;;;;;4936137;29;20154;-71
2023/05/27 00:32:23;;;;;;;15.73;6.50;;;11.60;99.90;;;;;;4936036;29;20549;-71
2023/05/27 00:34:48;;;;;;;15.27;7.13;;;11.60;99.90;;;;;;4907192;29;20058;-71
2023/05/27 00:37:14;;;;;;;17.55;7.35;;;11.40;99.90;;;;;;4925264;29;20062;-72
2023/05/27 00:39:40;;;;;;;19.35;7.50;;;11.50;99.90;;;;;;4919233;29;20063;-72
2023/05/27 00:42:07;;;;;;;20.73;6.55;;;11.40;99.90;;;;;;4919707;29;20048;-71
2023/05/27 00:44:32;;;;;;;21.17;7.25;;;11.30;99.90;;;;;;4920393;29;20043;-71
2023/05/27 00:46:58;;;;;;;16.83;7.32;;;11.30;99.90;;;;;;4920772;29;20117;-71
2023/05/27 00:49:26;;;;;;;16.42;6.80;;;11.30;99.90;;;;;;4883395;29;20039;-71
2023/05/27 00:51:52;;;;;;;16.88;7.07;;;11.30;99.90;;;;;;4920215;29;20054;-71
2023/05/27 00:54:17;;;;;;;17.50;7.10;;;11.30;99.90;;;;;;4919686;29;20047;-71
2023/05/27 00:56:43;;;;;;;21.95;7.25;;;11.20;99.90;;;;;;4918575;29;20066;-71
2023/05/27 00:59:09;;;;;;;18.08;6.90;;;11.20;99.90;;;;;;4934380;29;20039;-71
2023/05/27 01:01:36;;;;;;;18.92;7.03;;;11.20;99.90;;;;;;4919436;29;20083;-71
2023/05/27 01:04:03;;;;;;;20.35;7.22;;;11.20;99.90;;;;;;4924108;29;20075;-71
2023/05/27 01:06:48;;;;;;;16.63;7.07;;;11.20;99.90;;;;;;4887351;29;20079;-71
2023/05/27 01:09:35;;;;;;;17.98;6.80;;;11.20;99.90;;;;;;4912454;29;20052;-71
2023/05/27 01:12:23;;;;;;;17.53;6.53;;;11.20;99.90;;;;;;4920762;29;20043;-71
2023/05/27 01:14:49;;;;;;;23.20;7.10;;;11.20;99.90;;;;;;4935491;29;20049;-71
2023/05/27 01:17:15;;;;;;;13.73;6.20;;;11.20;99.90;;;;;;4918828;29;20378;-71
2023/05/27 01:19:42;;;;;;;19.17;6.68;;;11.20;99.90;;;;;;4903159;29;20050;-71
2023/05/27 01:22:08;;;;;;;22.15;7.07;;;11.20;99.90;;;;;;4915163;29;20098;-71
2023/05/27 01:24:34;;;;;;;19.83;6.75;;;11.20;99.90;;;;;;4943126;29;20469;-71
2023/05/27 01:27:01;;;;;;;20.00;6.78;;;11.20;99.90;;;;;;4893025;29;1254211;-71
2023/05/27 01:29:29;;;;;;;20.58;6.43;;;11.10;99.90;;;;;;4922480;29;20055;-71
2023/05/27 01:32:08;;;;;;;17.45;6.68;;;11.20;99.90;;;;;;4934787;29;20385;-71
2023/05/27 01:34:40;;;;;;;14.93;6.32;;;11.10;99.90;;;;;;4903311;29;20052;-71
2023/05/27 01:37:07;;;;;;;16.98;6.13;;;11.10;99.90;;;;;;4910086;29;20044;-71
2023/05/27 01:39:34;;;;;;;;;;;11.10;99.90;;;;;;4921945;29;20134;-71
2023/05/27 01:42:01;;;;;;;18.55;7.18;;;11.00;99.90;;;;;;4920454;29;20002;-71
2023/05/27 01:44:28;;;;;;;16.10;6.53;;;11.10;99.90;;;;;;4918957;29;20476;-71
2023/05/27 01:47:01;;;;;;;21.17;6.78;;;11.00;99.90;;;;;;4925586;29;20051;-71
2023/05/27 01:49:27;;;;;;;20.83;7.53;;;11.00;99.90;;;;;;4940187;29;20047;-71
2023/05/27 01:51:52;;;;;;;17.40;6.78;;;11.00;99.90;;;;;;4918174;29;20500;-71
2023/05/27 01:54:19;;;;;;;14.38;5.90;;;11.00;99.90;;;;;;4939366;29;20134;-71
2023/05/27 01:56:48;;;;;;;18.88;7.03;;;10.90;99.90;;;;;;4933436;29;20447;-71
2023/05/27 01:59:14;;;;;;;19.83;6.68;;;10.90;99.90;;;;;;4924584;29;20054;-71
2023/05/27 02:01:41;;;;;;;14.00;6.05;;;10.90;99.90;;;;;;4935983;29;20047;-71
2023/05/27 02:04:07;;;;;;;15.90;6.45;;;10.90;99.90;;;;;;4937059;29;20523;-71
2023/05/27 02:06:33;;;;;;;16.52;7.32;;;10.80;99.90;;;;;;4914837;29;20055;-71
2023/05/27 02:08:59;;;;;;;20.75;6.88;;;10.80;99.90;;;;;;4922154;29;20055;-71
2023/05/27 02:11:25;;;;;;;16.33;6.55;;;10.70;99.90;;;;;;4922810;29;20054;-71
2023/05/27 02:13:52;;;;;;;18.17;6.97;;;10.70;99.90;;;;;;4934515;29;20537;-71
2023/05/27 02:16:20;;;;;;;18.95;7.43;;;10.70;99.90;;;;;;4908750;29;20138;-71
2023/05/27 02:18:48;;;;;;;20.50;6.63;;;10.70;99.90;;;;;;4902819;29;20125;-71
2023/05/27 02:21:15;;;;;;;13.07;6.00;;;10.70;99.90;;;;;;4901925;29;20159;-71
2023/05/27 02:23:40;;;;;;;20.63;6.90;;;10.60;99.90;;;;;;4916070;29;20039;-71
2023/05/27 02:26:06;;;;;;;17.33;6.78;;;10.70;99.90;;;;;;4914929;29;20397;-71
2023/05/27 02:28:32;;;;;;;21.42;7.13;;;10.60;99.90;;;;;;4912908;29;20790;-71
2023/05/27 02:30:59;;;;;;;21.05;7.50;;;10.60;99.90;;;;;;4919175;29;20630;-71
2023/05/27 02:33:25;;;;;;;19.00;7.00;;;10.60;99.90;;;;;;4904046;29;20074;-71
2023/05/27 02:35:51;;;;;;;21.75;6.40;;;10.60;99.90;;;;;;4918255;29;20070;-71
2023/05/27 02:38:18;;;;;;;16.27;6.90;;;10.60;99.90;;;;;;4928859;29;20058;-71
2023/05/27 02:40:43;;;;;;;19.42;6.85;;;10.60;99.90;;;;;;4922026;29;20066;-72
2023/05/27 02:43:09;;;;;;;21.33;7.00;;;10.50;99.90;;;;;;4934106;29;20052;-72
2023/05/27 02:45:35;;;;;;;20.33;6.72;;;10.50;99.90;;;;;;4913593;29;20043;-71
2023/05/27 02:48:01;;;;;;;15.55;6.85;;;10.50;99.90;;;;;;4911949;29;20182;-71
2023/05/27 02:50:27;;;;;;;16.77;6.25;;;10.40;99.90;;;;;;4920181;29;20682;-71
2023/05/27 02:52:53;;;;;;;20.30;7.22;;;10.40;99.90;;;;;;4918937;29;20473;-71
2023/05/27 02:55:18;;;;;;;16.80;6.93;;;10.40;99.90;;;;;;4919963;29;20052;-71
2023/05/27 02:57:45;;;;;;;17.17;7.25;;;10.30;99.90;;;;;;4936695;29;20064;-71
2023/05/27 03:00:12;;;;;;;13.98;6.90;;;10.30;99.90;;;;;;4918135;29;20051;-71
2023/05/27 03:02:38;;;;;;;19.63;7.13;;;10.30;99.90;;;;;;4935868;29;20388;-71
2023/05/27 03:05:04;;;;;;;18.13;7.15;;;10.30;99.90;;;;;;4917962;29;20040;-71
2023/05/27 03:07:30;;;;;;;17.98;6.80;;;10.20;99.90;;;;;;4936481;29;20047;-71
2023/05/27 03:09:56;;;;;;;15.55;6.68;;;10.20;99.90;;;;;;4934136;29;20047;-71
2023/05/27 03:12:23;;;;;;;17.25;6.45;;;10.20;99.90;;;;;;4920312;29;20136;-71
2023/05/27 03:14:49;;;;;;;19.75;7.25;;;10.20;99.90;;;;;;4906940;29;20062;-71
2023/05/27 03:17:15;;;;;;;15.27;6.30;;;10.10;99.90;;;;;;4916344;29;20043;-71
2023/05/27 03:19:41;;;;;;;20.38;7.82;;;10.20;99.90;;;;;;4934191;29;20049;-71
2023/05/27 03:22:08;;;;;;;12.25;6.70;;;10.10;99.90;;;;;;4933795;29;20376;-71
2023/05/27 03:24:37;;;;;;;17.80;6.82;;;10.10;99.90;;;;;;4918579;29;20051;-71
2023/05/27 03:27:03;;;;;;;12.25;6.60;;;10.10;99.90;;;;;;4933603;29;20384;-71
2023/05/27 03:29:30;;;;;;;14.20;7.28;;;10.10;99.90;;;;;;4902917;29;20039;-71
2023/05/27 03:31:56;;;;;;;14.95;7.07;;;10.10;99.90;;;;;;4935817;29;20040;-71
2023/05/27 03:34:22;;;;;;;16.88;7.53;;;10.10;99.90;;;;;;4911497;29;20040;-71
2023/05/27 03:36:49;;;;;;;16.15;6.95;;;10.10;99.90;;;;;;4930799;29;20040;-71
2023/05/27 03:39:16;;;;;;;13.25;7.05;;;10.10;99.90;;;;;;4913663;29;20120;-72
2023/05/27 03:41:45;;;;;;;17.30;7.82;;;10.00;99.90;;;;;;4923392;29;20039;-71
2023/05/27 03:44:10;;;;;;;18.02;8.38;;;10.00;99.90;;;;;;4903543;29;20051;-72
2023/05/27 03:46:36;;;;;;;13.82;7.43;;;10.00;99.90;;;;;;4891124;29;20043;-71
2023/05/27 03:49:02;;;;;;;15.10;7.22;;;9.90;99.90;;;;;;4921236;29;20043;-71
2023/05/27 03:51:28;;;;;;;13.68;6.90;;;9.90;99.90;;;;;;4942142;29;20075;-71
2023/05/27 03:53:54;;;;;;;16.05;6.55;;;9.80;99.90;;;;;;4922255;29;20043;-71
2023/05/27 03:56:21;;;;;;;13.57;7.47;;;9.80;99.90;;;;;;4937317;29;20114;-72
2023/05/27 03:58:47;;;;;;;14.32;7.72;;;9.80;99.90;;;;;;4915530;29;20074;-71
2023/05/27 04:01:13;;;;;;;14.18;7.00;;;9.70;99.90;;;;;;4938006;29;20051;-71
2023/05/27 04:03:39;;;;;;;13.38;6.78;;;9.70;99.90;;;;;;4911630;29;20062;-71
2023/05/27 04:06:06;;;;;;;14.48;7.55;;;9.70;99.90;;;;;;4951833;29;20043;-71
2023/05/27 04:08:32;;;;;;;14.80;7.75;;;9.70;99.90;;;;;;4936543;29;20073;-71
2023/05/27 04:10:59;;;;;;;14.88;7.15;;;9.60;99.90;;;;;;4904599;29;20044;-71
2023/05/27 04:13:24;;;;;;;15.30;7.15;;;9.50;99.90;;;;;;4937716;29;20461;-71
2023/05/27 04:15:51;;;;;;;15.10;6.65;;;9.50;99.90;;;;;;4926169;29;20102;-71
2023/05/27 04:18:16;;;;;;;12.90;7.10;;;9.50;99.90;;;;;;4939477;29;20051;-71
2023/05/27 04:20:43;;;;;;;17.90;7.50;;;9.50;99.90;;;;;;4936324;29;20051;-71
2023/05/27 04:23:10;;;;;;;19.38;7.32;;;9.50;99.90;;;;;;4937609;29;20594;-71
2023/05/27 04:25:36;;;;;;;13.80;7.28;;;9.50;99.90;;;;;;4930723;29;20047;-71
2023/05/27 04:28:06;;;;;;;14.77;7.07;;;9.60;99.90;;;;;;4924650;29;20165;-71
2023/05/27 04:30:32;;;;;;;15.60;7.30;;;9.60;99.90;;;;;;4919810;29;20050;-71
2023/05/27 04:33:00;;;;;;;15.90;7.43;;;9.60;99.90;;;;;;4925862;29;20058;-71
2023/05/27 04:35:26;;;;;;;12.35;7.15;;;9.70;99.90;;;;;;4936195;29;20059;-71
2023/05/27 04:37:51;;;;;;;15.15;7.70;;;9.70;99.90;;;;;;4920329;29;20047;-71
2023/05/27 04:40:17;;;;;;;16.48;7.93;;;9.70;99.90;;;;;;4935892;29;20047;-71
2023/05/27 04:42:43;;;;;;;17.38;7.40;;;9.80;99.90;;;;;;4938949;29;20111;-72
2023/05/27 04:45:11;;;;;;;18.27;7.32;;;9.80;99.90;;;;;;4936443;29;20349;-71
2023/05/27 04:47:37;;;;;;;18.75;7.38;;;9.80;99.90;;;;;;4919854;29;20043;-71
2023/05/27 04:50:04;;;;;;;17.85;8.20;;;9.80;99.90;;;;;;4936181;29;20082;-71
2023/05/27 04:52:36;;;;;;;15.80;7.82;;;9.80;99.90;;;;;;4939030;29;20083;-71
2023/05/27 04:55:06;;;;;;;15.88;7.43;;;9.80;99.90;;;;;;4920054;29;20082;-71
2023/05/27 04:57:32;;;;;;;19.25;8.48;;;9.80;99.90;;;;;;4931611;29;20051;-71
2023/05/27 05:00:17;;;;;;;18.50;7.88;;;9.80;99.90;;;;;;4922586;29;20059;-71
2023/05/27 05:02:46;;;;;;;19.23;8.55;;;9.80;99.90;;;;;;4921389;29;20184;-72
2023/05/27 05:05:11;;;;;;;;;;;9.90;99.90;;;;;;4936500;29;20115;-71
2023/05/27 05:07:39;;;;;;;26.83;8.60;;;10.00;99.90;;;;;;4940228;29;20013;-71
2023/05/27 05:10:08;;;;;;;16.05;7.97;;;10.00;99.90;;;;;;4941122;29;20040;-71
2023/05/27 05:12:35;;;;;;;16.60;8.18;;;10.00;99.90;;;;;;4936314;29;20532;-71
2023/05/27 05:15:01;;;;;;;18.42;7.88;;;10.00;99.90;;;;;;4920749;29;20579;-71
2023/05/27 05:17:27;;;;;;;15.38;7.72;;;10.10;99.90;;;;;;4918039;29;20043;-71
2023/05/27 05:19:53;;;;;;;20.75;8.35;;;10.10;99.90;;;;;;4920221;29;20055;-72
2023/05/27 05:22:22;;;;;;;15.98;8.15;;;10.20;99.90;;;;;;4920043;29;20545;-71
2023/05/27 05:24:48;;;;;;;19.17;8.60;;;10.20;99.90;;;;;;4918700;29;20410;-71
2023/05/27 05:27:13;;;;;;;21.20;8.80;;;10.30;99.90;;;;;;4941259;29;20071;-72
2023/05/27 05:29:41;;;;;;;15.23;8.18;;;10.30;99.90;;;;;;4939164;29;20048;-71
2023/05/27 05:32:11;;;;;;;20.20;8.45;;;10.40;99.90;;;;;;4903182;29;20543;-71
2023/05/27 05:34:37;;;;;;;17.95;8.20;;;10.40;99.90;;;;;;4919359;29;20134;-72
2023/05/27 05:37:06;;;;;;;22.65;9.00;;;10.50;99.90;;;;;;4925473;29;20044;-72
2023/05/27 05:39:32;;;;;;;23.13;9.07;;;10.50;99.90;;;;;;4923012;29;20118;-71
2023/05/27 05:41:57;;;;;;;17.15;8.10;;;10.60;99.90;;;;;;4923601;29;20134;-71
2023/05/27 05:44:24;;;;;;;22.00;9.18;;;10.60;99.90;;;;;;4903151;29;20381;-71
2023/05/27 05:46:49;;;;;;;23.83;9.00;;;10.70;99.90;;;;;;4918930;29;20150;-71
2023/05/27 05:49:15;;;;;;;27.13;9.98;;;10.80;99.90;;;;;;4939839;29;20175;-71
2023/05/27 05:51:41;;;;;;;22.42;10.07;;;10.90;99.90;;;;;;4940107;29;20047;-71
2023/05/27 05:54:07;;;;;;;29.33;9.45;;;10.90;99.90;;;;;;4932094;29;20122;-71
2023/05/27 05:56:33;;;;;;;19.50;8.73;;;11.00;99.90;;;;;;4925517;29;20051;-72
2023/05/27 05:58:59;;;;;;;18.98;8.73;;;11.00;99.90;;;;;;4943005;29;20118;-72
2023/05/27 06:01:26;;;;;;;25.35;9.80;;;11.10;99.90;;;;;;4938999;29;20134;-71
2023/05/27 06:03:53;;;;;;;21.65;8.75;;;11.10;99.90;;;;;;4939054;29;20047;-71
2023/05/27 06:06:18;;;;;;;22.92;8.98;;;11.20;99.90;;;;;;4915852;29;20039;-72
2023/05/27 06:08:45;;;;;;;19.95;8.52;;;11.20;99.90;;;;;;4919062;29;20090;-71
2023/05/27 06:11:11;;;;;;;20.00;8.35;;;11.30;99.90;;;;;;4904289;29;20043;-71
2023/05/27 06:13:37;;;;;;;22.80;8.10;;;11.30;99.90;;;;;;4935431;29;20402;-72
2023/05/27 06:16:02;;;;;;;24.58;9.05;;;11.40;99.90;;;;;;4932612;29;20123;-72
2023/05/27 06:18:28;;;;;;;26.63;8.55;;;11.50;99.90;;;;;;4935115;29;20681;-72
2023/05/27 06:20:54;;;;;;;25.65;7.93;;;11.50;99.90;;;;;;4891822;29;20051;-72
2023/05/27 06:23:19;;;;;;;22.35;7.78;;;11.60;99.90;;;;;;4925200;29;20059;-72
2023/05/27 06:25:45;;;;;;;16.98;7.28;;;11.70;99.90;;;;;;4917643;29;20055;-72
2023/05/27 06:28:11;;;;;;;19.77;6.85;;;11.70;99.90;;;;;;4902534;29;20054;-72
2023/05/27 06:30:37;;;;;;;21.83;7.05;;;11.80;99.90;;;;;;4923201;29;20054;-72
2023/05/27 06:33:03;;;;;;;19.70;7.18;;;11.90;99.90;;;;;;4923617;29;20130;-72
2023/05/27 06:35:28;;;;;;;19.85;6.78;;;11.90;99.90;;;;;;4916346;29;20178;-72
2023/05/27 06:37:54;;;;;;;20.55;6.38;;;12.00;99.90;;;;;;4939509;29;20060;-72
2023/05/27 06:40:20;;;;;;;23.67;6.82;;;12.00;99.90;;;;;;4921281;29;20039;-72
2023/05/27 06:42:46;;;;;;;20.73;6.03;;;12.10;99.90;;;;;;4923394;29;20054;-71
2023/05/27 06:45:11;;;;;;;16.40;5.30;;;12.20;99.90;;;;;;4901885;29;20138;-72
2023/05/27 06:47:38;;;;;;;23.02;5.57;;;12.20;99.90;;;;;;4934266;29;20079;-72
2023/05/27 06:50:04;;;;;;;16.38;5.70;;;12.30;99.90;;;;;;4918736;29;20054;-72
2023/05/27 06:52:30;;;;;;;18.33;5.57;;;12.40;99.90;;;;;;4926451;29;20524;-73
2023/05/27 06:54:57;;;;;;;25.23;6.18;;;12.40;99.90;;;;;;4933831;29;20058;-71
2023/05/27 06:57:22;;;;;;;21.33;6.03;;;12.50;99.90;;;;;;4933807;29;20051;-72
2023/05/27 06:59:48;;;;;;;15.18;4.60;;;12.60;99.90;;;;;;4921953;29;20061;-72
2023/05/27 07:02:14;;;;;;;15.35;4.68;;;12.60;99.90;;;;;;4937219;29;20055;-72
2023/05/27 07:04:40;;;;;;;20.80;5.57;;;12.70;99.90;;;;;;4920444;29;20055;-72
2023/05/27 07:07:05;;;;;;;16.02;4.70;;;12.70;99.90;;;;;;4903363;29;20066;-72
2023/05/27 07:09:31;;;;;;;18.55;5.55;;;12.80;99.90;;;;;;4917897;29;20058;-72
2023/05/27 07:11:57;;;;;;;16.30;4.57;;;12.90;99.90;;;;;;4920181;29;20036;-76
2023/05/27 07:14:23;;;;;;;15.85;4.78;;;13.00;99.90;;;;;;4924089;29;20106;-73
2023/05/27 07:16:48;;;;;;;21.80;5.13;;;13.10;99.90;;;;;;4916799;29;20058;-72
2023/05/27 07:19:14;;;;;;;23.05;5.50;;;13.10;99.90;;;;;;4924660;29;20390;-72
2023/05/27 07:21:41;;;;;;;11.00;4.05;;;13.20;99.90;;;;;;4941253;29;20047;-72
2023/05/27 07:24:07;;;;;;;18.80;4.70;;;13.30;99.90;;;;;;4930937;29;20043;-73
2023/05/27 07:26:33;;;;;;;17.60;4.55;;;13.40;99.90;;;;;;4915362;29;20056;-72
2023/05/27 07:29:00;;;;;;;16.67;4.18;;;13.50;99.90;;;;;;4900058;29;20064;-72
2023/05/27 07:31:26;;;;;;;19.67;4.35;;;13.60;99.90;;;;;;4920841;29;20053;-73
2023/05/27 07:33:52;;;;;;;14.88;3.92;;;13.60;99.90;;;;;;4904261;29;20058;-72
2023/05/27 07:36:17;;;;;;;15.85;3.80;;;13.70;99.90;;;;;;4911424;29;20044;-71
2023/05/27 07:38:43;;;;;;;16.20;4.13;;;13.80;99.90;;;;;;4904816;29;20112;-71
2023/05/27 07:41:09;;;;;;;13.98;3.75;;;13.80;99.90;;;;;;4915418;29;20438;-69
2023/05/27 07:43:35;;;;;;;9.95;3.55;;;13.90;99.90;;;;;;4915912;29;20056;-70
2023/05/27 07:46:01;;;;;;;15.40;4.85;;;14.00;99.90;;;;;;4896452;29;20063;-72
2023/05/27 07:48:28;;;;;;;16.08;4.03;;;14.00;99.90;;;;;;4901800;29;20537;-72
2023/05/27 07:50:54;;;;;;;16.92;3.80;;;14.10;99.90;;;;;;4902261;29;20112;-72
2023/05/27 07:53:20;;;;;;;13.57;3.67;;;14.10;99.90;;;;;;4916193;29;20056;-72
2023/05/27 07:55:46;;;;;;;14.57;3.97;;;14.20;99.90;;;;;;4916752;29;20509;-72
2023/05/27 07:58:13;;;;;;;16.65;4.50;;;14.20;99.90;;;;;;4916477;29;20055;-73
2023/05/27 08:00:39;;;;;;;13.57;3.50;;;14.30;99.90;;;;;;4915859;29;20092;-72
2023/05/27 08:03:05;;;;;;;20.65;3.75;;;14.40;99.90;;;;;;4915007;29;20072;-72
2023/05/27 08:05:31;;;;;;;13.98;4.05;;;14.40;99.90;;;;;;4897189;29;20045;-73
2023/05/27 08:07:56;;;;;;;16.13;4.35;;;14.40;99.90;;;;;;4912238;29;20056;-72
2023/05/27 08:10:22;;;;;;;15.15;3.72;;;14.50;99.90;;;;;;4912425;29;20104;-73
2023/05/27 08:12:48;;;;;;;14.07;4.45;;;14.60;99.90;;;;;;4899963;29;20063;-73
2023/05/27 08:15:14;;;;;;;14.40;3.90;;;14.70;99.90;;;;;;4919035;29;20544;-72
2023/05/27 08:17:40;;;;;;;15.27;3.88;;;14.70;99.90;;;;;;4911864;29;20176;-70
2023/05/27 08:20:06;;;;;;;19.02;4.32;;;14.70;99.90;;;;;;4900786;29;20069;-70
2023/05/27 08:22:32;;;;;;;17.08;4.45;;;14.80;99.90;;;;;;4910931;29;20435;-70
2023/05/27 08:24:57;;;;;;;17.52;4.28;;;14.90;99.90;;;;;;4921058;29;20051;-70
2023/05/27 08:27:57;;;;;;;15.20;3.95;;;14.90;99.90;;;;;;4914044;29;20501;-70
2023/05/27 08:30:22;;;;;;;15.43;3.65;;;14.90;99.90;;;;;;4919653;29;20063;-70
2023/05/27 08:32:49;;;;;;;16.60;4.25;;;15.00;99.90;;;;;;4931983;29;20048;-70
2023/05/27 08:35:16;;;;;;;12.13;3.78;;;15.10;99.90;;;;;;4933461;29;20092;-69
2023/05/27 08:37:42;;;;;;;12.20;4.03;;;15.20;99.90;;;;;;4909892;29;20052;-72
2023/05/27 08:40:12;;;;;;;13.20;3.47;;;15.30;99.70;;;;;;4917518;29;20054;-72
2023/05/27 08:42:38;;;;;;;13.48;3.83;;;15.40;99.90;;;;;;4911717;29;20123;-73
2023/05/27 08:45:05;;;;;;;13.23;4.32;;;15.50;99.90;;;;;;4934567;29;20135;-73
2023/05/27 08:47:31;;;;;;;12.63;3.75;;;15.30;99.20;;;;;;4916610;29;20517;-72
2023/05/27 08:49:58;;;;;;;35.22;4.93;;;15.30;99.60;;;;;;4919962;29;20091;-73
2023/05/27 08:52:25;;;;;;;20.85;4.28;;;15.40;99.90;;;;;;4932678;29;20164;-72
2023/05/27 08:54:52;;;;;;;18.88;4.10;;;15.40;99.30;;;;;;4913824;29;20625;-72
2023/05/27 08:57:19;;;;;;;18.02;4.75;;;15.50;99.90;;;;;;4932298;29;20051;-72
2023/05/27 08:59:45;;;;;;;11.07;3.60;;;15.60;99.90;;;;;;4935856;29;20060;-72
2023/05/27 09:02:11;;;;;;;13.73;3.70;;;15.60;99.60;;;;;;4933717;29;20055;-72
2023/05/27 09:04:40;;;;;;;15.27;4.10;;;15.70;99.50;;;;;;4934774;29;20540;-72
2023/05/27 09:07:07;;;;;;;13.82;3.88;;;15.70;99.00;;;;;;4899692;29;20048;-72
2023/05/27 09:09:33;;;;;;;11.88;3.60;;;15.80;99.00;;;;;;4936399;29;20131;-72
2023/05/27 09:12:02;;;;;;;12.02;3.40;;;15.80;98.90;;;;;;4934328;29;20048;-73
2023/05/27 09:14:31;;;;;;;14.18;3.58;;;15.90;99.90;;;;;;4918933;29;20059;-72
2023/05/27 09:16:57;;;;;;;15.48;3.80;;;16.00;99.90;;;;;;4932436;29;20063;-72
2023/05/27 09:19:22;;;;;;;12.35;4.20;;;16.20;99.30;;;;;;4920876;29;20048;-72
2023/05/27 09:21:51;;;;;;;12.95;4.03;;;16.20;98.60;;;;;;4915307;29;20079;-72
2023/05/27 09:24:17;;;;;;;11.43;3.97;;;16.20;98.00;;;;;;4935282;29;20056;-73
2023/05/27 09:26:43;;;;;;;11.18;3.58;;;16.30;99.00;;;;;;4932170;29;20385;-70
2023/05/27 09:29:08;;;;;;;11.57;3.70;;;16.30;98.70;;;;;;4913939;29;20381;-70
2023/05/27 09:31:41;;;;;;;15.52;4.32;;;16.30;98.70;;;;;;4935530;29;20056;-70
2023/05/27 09:34:16;;;;;;;11.77;3.60;;;16.40;97.40;;;;;;4935319;29;20051;-70
2023/05/27 09:36:46;;;;;;;13.68;4.10;;;16.30;96.90;;;;;;4931075;29;20457;-70
2023/05/27 09:39:16;;;;;;;20.73;4.38;;;16.30;97.40;;;;;;4914420;29;20442;-70
2023/05/27 09:41:42;;;;;;;15.80;3.58;;;16.40;97.60;;;;;;4909891;29;20052;-70
2023/05/27 09:44:08;;;;;;;12.32;3.45;;;16.40;97.80;;;;;;4903612;29;20118;-70
2023/05/27 09:46:34;;;;;;;17.80;3.95;;;16.40;97.20;;;;;;4928953;29;20055;-70
2023/05/27 09:49:00;;;;;;;13.27;3.83;;;16.10;96.70;;;;;;4931016;29;20130;-70
2023/05/27 09:51:31;;;;;;;11.80;3.53;;;16.30;97.90;;;;;;4922350;29;20049;-69
2023/05/27 09:53:58;;;;;;;14.68;3.58;;;16.40;96.90;;;;;;4921359;29;20052;-70
2023/05/27 09:56:29;;;;;;;11.50;3.15;;;16.40;96.80;;;;;;4915264;29;20054;-70
2023/05/27 09:58:58;;;;;;;12.63;3.38;;;16.50;96.80;;;;;;4915194;29;20052;-70
2023/05/27 10:01:28;;;;;;;10.60;3.65;;;16.60;98.20;;;;;;4916391;29;20266;-70
2023/05/27 10:04:01;;;;;;;13.10;3.72;;;16.80;96.40;;;;;;4930974;29;20044;-70
2023/05/27 10:06:27;;;;;;;15.07;3.60;;;16.80;96.40;;;;;;4914724;29;20587;-70
2023/05/27 10:08:52;;;;;;;10.38;3.90;;;17.00;96.90;;;;;;4901068;29;20056;-70
2023/05/27 10:11:18;;;;;;;13.25;4.15;;;17.20;96.40;;;;;;4906545;29;20054;-70
2023/05/27 10:13:44;;;;;;;10.50;3.50;;;17.20;96.50;;;;;;4899012;29;20056;-70
2023/05/27 10:16:21;;;;;;;14.65;4.22;;;17.30;97.50;;;;;;4924235;29;20376;-70
2023/05/27 10:18:52;;;;;;;31.95;7.47;;;17.50;97.60;;;;;;4934648;29;20074;-70
2023/05/27 10:21:22;;;;;;;17.05;4.07;;;17.60;95.30;;;;;;4936696;29;20052;-70
2023/05/27 10:23:58;;;;;;;8.48;2.90;;;17.70;95.10;;;;;;4931255;29;20072;-71
2023/05/27 10:26:35;;;;;;;10.68;3.08;;;18.00;97.30;;;;;;4935482;29;20619;-71
2023/05/27 10:29:13;;;;;;;16.00;3.47;;;17.90;93.80;;;;;;4895664;29;20053;-71
2023/05/27 10:31:57;;;;;;;;;;;18.00;94.80;;;;;;4929672;29;20048;-74
2023/05/27 10:34:23;;;;;;;10.30;3.28;;;18.10;94.40;;;;;;4932951;29;19911;-74
2023/05/27 10:36:58;;;;;;;13.43;3.67;;;18.10;93.30;;;;;;4919948;29;20048;-74
2023/05/27 10:39:23;;;;;;;11.00;3.15;;;18.20;94.10;;;;;;4915328;29;20138;-74
2023/05/27 10:41:54;;;;;;;13.98;3.13;;;18.40;93.40;;;;;;4903138;29;20487;-74
2023/05/27 10:44:34;;;;;;;13.68;3.47;;;18.40;93.70;;;;;;4914629;29;20130;-73
2023/05/27 10:47:02;;;;;;;12.48;3.33;;;18.50;91.90;;;;;;4919194;29;20040;-74
2023/05/27 10:49:35;;;;;;;11.75;3.22;;;18.50;93.10;;;;;;4930632;29;20048;-74
2023/05/27 10:52:12;;;;;;;14.68;4.25;;;18.70;94.10;;;;;;4916037;29;20088;-71
2023/05/27 10:54:50;;;;;;;13.77;4.27;;;18.80;93.10;;;;;;4932174;29;20047;-72
2023/05/27 10:57:16;;;;;;;9.57;3.00;;;18.60;89.80;;;;;;4920231;29;20040;-73
2023/05/27 10:59:52;;;;;;;12.98;3.25;;;18.70;91.00;;;;;;4921578;29;20413;-74
2023/05/27 11:02:19;;;;;;;10.55;2.97;;;18.60;90.60;;;;;;4930653;29;20050;-73
2023/05/27 11:04:45;;;;;;;11.98;3.28;;;18.90;91.60;;;;;;4933776;29;20389;-73
2023/05/27 11:07:10;;;;;;;11.80;3.05;;;19.00;92.40;;;;;;4936838;29;20051;-73
2023/05/27 11:09:44;;;;;;;11.10;3.63;;;19.10;92.50;;;;;;4934450;29;20473;-73
2023/05/27 11:12:16;;;;;;;8.55;3.42;;;19.20;92.10;;;;;;4914308;29;20044;-71
2023/05/27 11:14:42;;;;;;;11.27;3.95;;;19.30;91.40;;;;;;4899593;29;20054;-69
2023/05/27 11:17:12;;;;;;;10.32;3.20;;;19.30;90.90;;;;;;4919397;29;20131;-71
2023/05/27 11:19:41;;;;;;;9.52;3.05;;;19.40;91.10;;;;;;4919730;29;20044;-70
2023/05/27 11:22:10;;;;;;;11.93;3.67;;;19.50;91.20;;;;;;4920565;29;20098;-70
2023/05/27 11:24:36;;;;;;;11.60;3.80;;;19.50;91.20;;;;;;4933827;29;20177;-70
2023/05/27 11:27:12;;;;;;;10.73;3.03;;;19.50;90.70;;;;;;4906415;29;20549;-70
2023/05/27 11:29:38;;;;;;;10.90;3.35;;;19.50;87.90;;;;;;4935637;29;20056;-70
2023/05/27 11:32:07;;;;;;;9.25;3.47;;;19.50;88.30;;;;;;4920933;29;20047;-70
2023/05/27 11:34:36;;;;;;;11.30;3.25;;;19.60;90.50;;;;;;4917486;29;20048;-70
2023/05/27 11:37:05;;;;;;;13.95;3.75;;;19.90;90.60;;;;;;4921002;29;20052;-70
2023/05/27 11:39:31;;;;;;;11.98;3.50;;;20.00;90.00;;;;;;4934952;29;20528;-70
2023/05/27 11:41:57;;;;;;;9.98;3.30;;;20.00;90.50;;;;;;4900492;29;20051;-70
2023/05/27 11:44:23;;;;;;;12.48;3.17;;;20.10;89.40;;;;;;4933970;29;20059;-71
2023/05/27 11:46:50;;;;;;;9.18;3.70;;;19.90;88.40;;;;;;4934374;29;20044;-71
2023/05/27 11:49:21;;;;;;;12.02;3.70;;;20.00;87.80;;;;;;4916802;29;20051;-71
2023/05/27 11:51:47;;;;;;;10.70;3.38;;;19.90;87.70;;;;;;4936058;29;20128;-71
2023/05/27 11:54:24;;;;;;;11.27;3.35;;;20.00;86.80;;;;;;4915781;29;20470;-70
2023/05/27 11:56:50;;;;;;;9.52;2.97;;;19.80;86.40;;;;;;4933071;29;20044;-71
2023/05/27 11:59:16;;;;;;;9.27;3.17;;;20.00;87.30;;;;;;4916642;29;20100;-71
2023/05/27 12:01:42;;;;;;;14.13;3.95;;;20.20;86.90;;;;;;4919857;29;20059;-71
2023/05/27 12:04:08;;;;;;;10.20;3.10;;;20.30;87.80;;;;;;4912171;29;20048;-71
2023/05/27 12:06:35;;;;;;;11.90;3.55;;;20.40;87.20;;;;;;4897121;29;20044;-70
2023/05/27 12:09:02;;;;;;;8.97;3.53;;;20.40;87.70;;;;;;4887608;29;20460;-71
2023/05/27 12:11:28;;;;;;;11.40;3.50;;;20.70;88.70;;;;;;4937148;29;20303;-71
2023/05/27 12:13:54;;;;;;;10.45;3.15;;;20.80;86.80;;;;;;4915705;29;20056;-71
2023/05/27 12:16:22;;;;;;;11.80;3.20;;;20.70;86.50;;;;;;4934915;29;20115;-71
2023/05/27 12:18:48;;;;;;;;;;;20.80;87.00;;;;;;4919801;29;20063;-71
2023/05/27 12:21:15;;;;;;;8.63;3.17;;;21.00;84.60;;;;;;4920022;29;19914;-71
2023/05/27 12:23:40;;;;;;;10.38;3.70;;;21.00;85.50;;;;;;4932040;29;20052;-71
2023/05/27 12:26:07;;;;;;;12.70;3.42;;;20.70;80.60;;;;;;4919968;29;20531;-71
2023/05/27 12:28:32;;;;;;;9.13;3.25;;;20.50;82.20;;;;;;4916780;29;20051;-71
2023/05/27 12:30:58;;;;;;;12.23;3.50;;;20.70;85.90;;;;;;4939164;29;20052;-71
2023/05/27 12:33:24;;;;;;;10.25;3.20;;;20.80;82.90;;;;;;4913844;29;20041;-71
2023/05/27 12:35:51;;;;;;;10.88;3.50;;;21.00;83.10;;;;;;4920065;29;20050;-71
2023/05/27 12:38:16;;;;;;;10.05;2.97;;;21.10;83.60;;;;;;4932989;29;20084;-71